^^
Station Historical Data
Daily Summary for January 23, 2018 Units:  Metric    English   Both
« Previous Day
Next Day »
Daily Weekly Monthly Yearly Custom
  High: Low: Average:
Temperature: -17.8 °C 14 °C 23.9 °C
Dew Point: -17.8 °C -6.9 °C 0.2 °C
Humidity: Humidity% 11% 23%
Wind Speed: 0km/h 0km/h 3.1km/h
Wind Gust: 0km/h - -
Wind- - SW
Pressure: 0 hPa 1001.2 hPa -
Precipitation: 0 mm    
Historical Graphs
 
 
Tabular Data for January 23, 2018
Time Temperature Dew Point Pressure Wind Wind Speed Wind Gust Humidity Rainfall Rate (Hourly) solar Conditions
-17.8 °C -17.8 °C 0 hPa Calm     Humidity% 0 mm SolarRadiationWatts/m^2 W/m2 Conditions
00:03 20.8 °C 1.1 °C 1006.3 hPa NNW 1.4 km/h 3.2 km/h 27% 0 mm 0.0 W/m2
00:09 20.7 °C 1.5 °C 1006.3 hPa Calm   4.8 km/h 28% 0 mm 0.0 W/m2
00:14 20.7 °C 1.5 °C 1006.3 hPa Calm   3.2 km/h 28% 0 mm 0.0 W/m2
00:19 20.6 °C 1.4 °C 1006.3 hPa Calm   1.6 km/h 28% 0 mm 0.0 W/m2
00:24 20.6 °C 0.9 °C 1006.3 hPa Calm     27% 0 mm 0.0 W/m2
00:29 20.5 °C 1.4 °C 1006.3 hPa Calm     28% 0 mm 0.0 W/m2
00:34 20.4 °C 1.3 °C 1006.3 hPa Calm     28% 0 mm 0.0 W/m2
00:39 20.3 °C 0.7 °C 1006.3 hPa Calm   1.6 km/h 27% 0 mm 0.0 W/m2
00:44 20.2 °C 1.1 °C 1006.3 hPa Calm   3.2 km/h 28% 0 mm 0.0 W/m2
00:50 20.2 °C 1.1 °C 1006.3 hPa Calm     28% 0 mm 0.0 W/m2
00:55 20.1 °C 1 °C 1006 hPa Calm     28% 0 mm 0.0 W/m2
01:00 20.1 °C 1 °C 1006 hPa Calm     28% 0 mm 0.0 W/m2
01:05 20 °C 1.4 °C 1006 hPa Calm     29% 0 mm 0.0 W/m2
01:10 19.9 °C 1.3 °C 1006 hPa Calm     29% 0 mm 0.0 W/m2
01:15 19.8 °C 1.2 °C 1006 hPa Calm     29% 0 mm 0.0 W/m2
01:20 19.7 °C 1.6 °C 1005.6 hPa Calm   1.6 km/h 30% 0 mm 0.0 W/m2
01:25 19.6 °C 1.5 °C 1005.6 hPa Calm     30% 0 mm 0.0 W/m2
01:30 19.5 °C 1.9 °C 1005.6 hPa Calm     31% 0 mm 0.0 W/m2
01:36 19.4 °C 1.8 °C 1005.6 hPa Calm     31% 0 mm 0.0 W/m2
01:41 19.2 °C 1.7 °C 1005.6 hPa Calm     31% 0 mm 0.0 W/m2
01:46 19.1 °C 2 °C 1005.6 hPa Calm     32% 0 mm 0.0 W/m2
01:51 18.8 °C 1.8 °C 1005.6 hPa Calm     32% 0 mm 0.0 W/m2
01:56 18.7 °C 2.1 °C 1005.6 hPa Calm     33% 0 mm 0.0 W/m2
02:01 18.4 °C 1.8 °C 1005.6 hPa Calm   1.6 km/h 33% 0 mm 0.0 W/m2
02:06 18.2 °C 1.7 °C 1005.6 hPa Calm   4.8 km/h 33% 0 mm 0.0 W/m2
02:11 18.1 °C 1.6 °C 1005.6 hPa East 3.2 km/h 3.2 km/h 33% 0 mm 0.0 W/m2
02:16 17.9 °C 1 °C 1005.6 hPa Calm   1.6 km/h 32% 0 mm 0.0 W/m2
02:22 17.8 °C 0.9 °C 1005.3 hPa Calm   1.6 km/h 32% 0 mm 0.0 W/m2
02:27 17.7 °C 0.8 °C 1005.6 hPa Calm   1.6 km/h 32% 0 mm 0.0 W/m2
02:32 17.4 °C 1 °C 1005.6 hPa Calm   3.2 km/h 33% 0 mm 0.0 W/m2
02:37 17.3 °C 1.3 °C 1005.3 hPa Calm   1.6 km/h 34% 0 mm 0.0 W/m2
02:42 17.2 °C 1.2 °C 1005.3 hPa Calm     34% 0 mm 0.0 W/m2
02:47 17.2 °C 1.2 °C 1005.3 hPa Calm     34% 0 mm 0.0 W/m2
02:52 17.1 °C 1.5 °C 1005.3 hPa ENE 1.4 km/h 1.6 km/h 35% 0 mm 0.0 W/m2
02:57 16.9 °C 1.3 °C 1005 hPa Calm     35% 0 mm 0.0 W/m2
03:02 16.8 °C 1.6 °C 1005 hPa Calm   1.6 km/h 36% 0 mm 0.0 W/m2
03:13 16.6 °C 1.5 °C 1005 hPa ENE 1.4 km/h 1.6 km/h 36% 0 mm 0.0 W/m2
03:18 16.4 °C 1.3 °C 1005 hPa Calm   1.6 km/h 36% 0 mm 0.0 W/m2
03:23 16.2 °C 1.1 °C 1005 hPa Calm   1.6 km/h 36% 0 mm 0.0 W/m2
03:38 15.9 °C 1.2 °C 1004.6 hPa Calm   1.6 km/h 37% 0 mm 0.0 W/m2
03:43 15.9 °C 1.2 °C 1004.6 hPa Calm     37% 0 mm 0.0 W/m2
03:48 15.9 °C 1.2 °C 1004.6 hPa Calm     37% 0 mm 0.0 W/m2
03:53 15.8 °C 1.5 °C 1004.6 hPa Calm     38% 0 mm 0.0 W/m2
03:59 15.8 °C 1.5 °C 1004.6 hPa Calm     38% 0 mm 0.0 W/m2
04:04 15.8 °C 1.5 °C 1004.6 hPa ESE 3.2 km/h 3.2 km/h 38% 0 mm 0.0 W/m2
04:09 15.7 °C 1.4 °C 1004.6 hPa Calm   1.6 km/h 38% 0 mm 0.0 W/m2
04:14 15.7 °C 1.4 °C 1004.6 hPa Calm     38% 0 mm 0.0 W/m2
04:19 15.7 °C 1.8 °C 1004.3 hPa Calm     39% 0 mm 0.0 W/m2
04:24 15.6 °C 1.3 °C 1004.3 hPa Calm   1.6 km/h 38% 0 mm 0.0 W/m2
04:29 15.6 °C 1.7 °C 1004.6 hPa Calm     39% 0 mm 0.0 W/m2
04:34 15.5 °C 1.6 °C 1004.6 hPa NE 3.2 km/h 6.4 km/h 39% 0 mm 0.0 W/m2
04:45 15.3 °C 0.7 °C 1004.6 hPa East 4.7 km/h 4.8 km/h 37% 0 mm 0.0 W/m2
04:50 15.2 °C 0.6 °C 1004.6 hPa ESE 1.4 km/h 8 km/h 37% 0 mm 0.0 W/m2
05:00 15.2 °C 0.2 °C 1004.6 hPa East 3.2 km/h 9.7 km/h 36% 0 mm 0.0 W/m2
05:05 15.2 °C 0.2 °C 1004.6 hPa ENE 1.4 km/h 4.8 km/h 36% 0 mm 0.0 W/m2
05:10 15.2 °C 0.2 °C 1004.6 hPa Calm   1.6 km/h 36% 0 mm 0.0 W/m2
05:15 15.2 °C 0.6 °C 1004.6 hPa Calm     37% 0 mm 0.0 W/m2
05:20 15.1 °C 0.1 °C 1004.6 hPa ESE 3.2 km/h 3.2 km/h 36% 0 mm 0.0 W/m2
05:26 15.1 °C 0.1 °C 1004.6 hPa Calm   3.2 km/h 36% 0 mm 0.0 W/m2
05:31 15.1 °C 0.1 °C 1004.6 hPa Calm   1.6 km/h 36% 0 mm 0.0 W/m2
05:41 15.1 °C 0.5 °C 1004.6 hPa Calm   3.2 km/h 37% 0 mm 0.0 W/m2
05:51 14.9 °C 0.3 °C 1004.6 hPa Calm   4.8 km/h 37% 0 mm 0.0 W/m2
05:56 14.8 °C 0.2 °C 1004.6 hPa Calm     37% 0 mm 0.0 W/m2
06:01 14.7 °C 0.2 °C 1004.6 hPa Calm   3.2 km/h 37% 0 mm 0.0 W/m2
06:06 14.6 °C 0.1 °C 1005 hPa Calm   4.8 km/h 37% 0 mm 0.0 W/m2
06:12 14.6 °C 0.4 °C 1005 hPa SE 1.4 km/h 1.6 km/h 38% 0 mm 0.0 W/m2
06:17 14.5 °C 0 °C 1005 hPa Calm   1.6 km/h 37% 0 mm 0.0 W/m2
06:22 14.4 °C -0.5 °C 1005 hPa Calm   1.6 km/h 36% 0 mm 0.0 W/m2
06:27 14.3 °C -0.6 °C 1005 hPa SE 1.4 km/h 3.2 km/h 36% 0 mm 0.0 W/m2
06:32 14.3 °C -1 °C 1005 hPa Calm   3.2 km/h 35% 0 mm 5.0 W/m2
06:37 14.2 °C -0.7 °C 1005.3 hPa Calm   4.8 km/h 36% 0 mm 7.0 W/m2
06:42 14.2 °C -0.7 °C 1005.3 hPa East 3.2 km/h 6.4 km/h 36% 0 mm 9.0 W/m2
06:47 14.1 °C -0.8 °C 1005.3 hPa Calm   1.6 km/h 36% 0 mm 11.0 W/m2
06:53 14 °C -0.8 °C 1005.3 hPa Calm   4.8 km/h 36% 0 mm 12.0 W/m2
06:58 14 °C -0.8 °C 1005.3 hPa Calm   1.6 km/h 36% 0 mm 14.0 W/m2
07:08 14.2 °C -1.1 °C 1005.6 hPa Calm   1.6 km/h 35% 0 mm 18.0 W/m2
07:18 14.4 °C -0.5 °C 1005.3 hPa Calm   1.6 km/h 36% 0 mm 21.0 W/m2
07:23 14.6 °C -1.1 °C 1005.3 hPa Calm   1.6 km/h 34% 0 mm 21.0 W/m2
07:28 14.7 °C 0.2 °C 1005.6 hPa Calm     37% 0 mm 23.0 W/m2
07:33 14.9 °C -1.2 °C 1005.6 hPa Calm     33% 0 mm 23.0 W/m2
07:39 15.1 °C -0.7 °C 1005.3 hPa Calm     34% 0 mm 25.0 W/m2
07:44 15.2 °C -0.6 °C 1005.3 hPa Calm     34% 0 mm 56.0 W/m2
07:49 15.4 °C 0.4 °C 1005.6 hPa Calm     36% 0 mm 142.0 W/m2
07:54 15.6 °C -1 °C 1005.3 hPa Calm     32% 0 mm 236.0 W/m2
07:59 16 °C -0.3 °C 1005.3 hPa Calm     33% 0 mm 334.0 W/m2
08:09 17 °C -1.6 °C 1005.3 hPa East 1.4 km/h 1.6 km/h 28% 0 mm 373.0 W/m2
08:20 18.7 °C -1.7 °C 1005.3 hPa Calm   3.2 km/h 25% 0 mm 422.0 W/m2
08:25 19.6 °C -2.1 °C 1005.3 hPa Calm   3.2 km/h 23% 0 mm 441.0 W/m2
08:31 20.8 °C -2.3 °C 1005.3 hPa Calm   3.2 km/h 21% 0 mm 464.0 W/m2
08:36 21.7 °C -3.7 °C 1005.3 hPa Calm   1.6 km/h 18% 0 mm 487.0 W/m2
08:41 22.4 °C -3.1 °C 1005.3 hPa Calm     18% 0 mm 506.0 W/m2
08:51 23.1 °C -4.1 °C 1005.3 hPa Calm   1.6 km/h 16% 0 mm 548.0 W/m2
08:56 23.7 °C -4.5 °C 1005.3 hPa Calm   1.6 km/h 15% 0 mm 570.0 W/m2
09:01 24.2 °C -5 °C 1005.3 hPa Calm   4.8 km/h 14% 0 mm 585.0 W/m2
09:06 24.7 °C -6.6 °C 1005 hPa Calm   1.6 km/h 12% 0 mm 605.0 W/m2
09:12 25.2 °C -6.2 °C 1005.3 hPa East 1.4 km/h 3.2 km/h 12% 0 mm 622.0 W/m2
09:17 25.6 °C -5.9 °C 1005 hPa Calm     12% 0 mm 642.0 W/m2
09:22 25.9 °C -6.8 °C 1005 hPa Calm   1.6 km/h 11% 0 mm 659.0 W/m2
09:27 25.9 °C -5.7 °C 1005 hPa Calm   3.2 km/h 12% 0 mm 671.0 W/m2
09:32 25.9 °C -5.7 °C 1005 hPa WNW 1.4 km/h 3.2 km/h 12% 0 mm 691.0 W/m2
09:37 25.8 °C -6.9 °C 1005 hPa Calm     11% 0 mm 708.0 W/m2
09:47 26.2 °C -4.4 °C 1005 hPa Calm   4.8 km/h 13% 0 mm 745.0 W/m2
09:52 26.7 °C -4 °C 1005 hPa West 1.4 km/h 4.8 km/h 13% 0 mm 765.0 W/m2
10:03 27.4 °C -5.7 °C 1005 hPa North 3.2 km/h 6.4 km/h 11% 0 mm 791.0 W/m2
10:08 27.7 °C -5.4 °C 1005 hPa Calm   6.4 km/h 11% 0 mm 809.0 W/m2
10:13 27.9 °C -4.1 °C 1005 hPa WSW 1.4 km/h 4.8 km/h 12% 0 mm 824.0 W/m2
10:23 28.3 °C -5 °C 1005 hPa NE 4.7 km/h 11.3 km/h 11% 0 mm 851.0 W/m2
10:28 28.4 °C -3.7 °C 1005 hPa Calm   6.4 km/h 12% 0 mm 867.0 W/m2
10:33 28.6 °C -1.5 °C 1005 hPa West 1.4 km/h 3.2 km/h 14% 0 mm 877.0 W/m2
10:38 28.8 °C -2.4 °C 1004.6 hPa Calm   6.4 km/h 13% 0 mm 889.0 W/m2
10:43 28.9 °C -1.3 °C 1004.6 hPa WNW 1.4 km/h 8 km/h 14% 0 mm 905.0 W/m2
10:48 29.1 °C -1.1 °C 1004.6 hPa NNW 1.4 km/h 6.4 km/h 14% 0 mm 921.0 W/m2
10:54 29.1 °C -2.1 °C 1004.6 hPa WSW 4.7 km/h 11.3 km/h 13% 0 mm 932.0 W/m2
10:59 29.2 °C -2 °C 1004.6 hPa WSW 1.4 km/h 16.1 km/h 13% 0 mm 944.0 W/m2
11:04 29.3 °C -2 °C 1004.6 hPa West 1.4 km/h 8 km/h 13% 0 mm 956.0 W/m2
11:09 29.3 °C -3.1 °C 1004.6 hPa Calm   4.8 km/h 12% 0 mm 967.0 W/m2
11:20 29.4 °C -1.9 °C 1004.6 hPa WNW 1.4 km/h 16.1 km/h 13% 0 mm 988.0 W/m2
11:21 29.4 °C -1.9 °C 1004.6 hPa NNW 4.7 km/h 4.8 km/h 13% 0 mm 988.0 W/m2
11:26 29.6 °C -1.7 °C 1004.6 hPa NNE 6.4 km/h 6.4 km/h 13% 0 mm 998.0 W/m2
11:31 29.8 °C -1.6 °C 1004.6 hPa West 9.7 km/h 11.3 km/h 13% 0 mm 1009.0 W/m2
11:36 29.9 °C -2.6 °C 1004.6 hPa WSW 4.7 km/h 8 km/h 12% 0 mm 1018.0 W/m2
11:52 30 °C -2.5 °C 1004.3 hPa SW 1.4 km/h 11.3 km/h 12% 0 mm 1063.0 W/m2
11:57 30 °C -1.4 °C 1004.3 hPa Calm   11.3 km/h 13% 0 mm 1041.0 W/m2
12:02 30 °C -1.4 °C 1004.3 hPa Calm   9.7 km/h 13% 0 mm 1044.0 W/m2
12:07 30.4 °C -2.2 °C 1003.9 hPa WSW 1.4 km/h 9.7 km/h 12% 0 mm 1042.0 W/m2
12:12 30.3 °C -1.2 °C 1003.9 hPa West 7.9 km/h 14.5 km/h 13% 0 mm 1062.0 W/m2
12:17 30.2 °C -0.3 °C 1003.9 hPa SSW 6.4 km/h 16.1 km/h 14% 0 mm 1065.0 W/m2
12:38 30.5 °C -2.1 °C 1003.9 hPa WSW 3.2 km/h 12.9 km/h 12% 0 mm 1065.0 W/m2
12:43 30.7 °C -2 °C 1003.9 hPa SW 6.4 km/h 9.7 km/h 12% 0 mm 1081.0 W/m2
12:48 30.9 °C -1.8 °C 1003.6 hPa NNE 6.4 km/h 20.9 km/h 12% 0 mm 1134.0 W/m2
12:53 31 °C -0.6 °C 1003.6 hPa SW 6.4 km/h 12.9 km/h 13% 0 mm 1123.0 W/m2
12:58 31.2 °C -0.5 °C 1003.3 hPa West 7.9 km/h 11.3 km/h 13% 0 mm 1099.0 W/m2
13:03 31.3 °C -1.5 °C 1003.3 hPa North 3.2 km/h 11.3 km/h 12% 0 mm 1137.0 W/m2
13:14 31.4 °C -0.3 °C 1003.3 hPa North 3.2 km/h 17.7 km/h 13% 0 mm 1158.0 W/m2
13:19 31.6 °C -1.3 °C 1003.3 hPa WSW 3.2 km/h 14.5 km/h 12% 0 mm 735.0 W/m2
13:29 31.6 °C -1.3 °C 1002.9 hPa ESE 7.9 km/h 11.3 km/h 12% 0 mm 1169.0 W/m2
13:34 31.6 °C -0.2 °C 1002.9 hPa WSW 13 km/h 14.5 km/h 13% 0 mm 1153.0 W/m2
13:39 31.4 °C -0.3 °C 1002.9 hPa WSW 6.4 km/h 8 km/h 13% 0 mm 1230.0 W/m2
13:44 31.3 °C -0.4 °C 1002.9 hPa Calm   8 km/h 13% 0 mm 1229.0 W/m2
13:49 31.6 °C 0.9 °C 1002.9 hPa NW 4.7 km/h 11.3 km/h 14% 0 mm 1095.0 W/m2
13:54 32 °C 0.1 °C 1002.9 hPa West 1.4 km/h 20.9 km/h 13% 0 mm 1102.0 W/m2
13:59 31.9 °C 0.1 °C 1002.9 hPa WSW 16.3 km/h 24.1 km/h 13% 0 mm 1197.0 W/m2
14:05 31.6 °C 0.9 °C 1002.6 hPa South 9.7 km/h 9.7 km/h 14% 0 mm 1245.0 W/m2
14:10 31.7 °C 0.9 °C 1002.6 hPa West 7.9 km/h 9.7 km/h 14% 0 mm 424.0 W/m2
14:15 31.9 °C 1.1 °C 1002.6 hPa WNW 6.4 km/h 14.5 km/h 14% 0 mm 1290.0 W/m2
14:25 32.4 °C 1.5 °C 1002.3 hPa Calm   8 km/h 14% 0 mm 1111.0 W/m2
14:30 32.7 °C 1.7 °C 1002.3 hPa North 6.4 km/h 14.5 km/h 14% 0 mm 1076.0 W/m2
14:35 32.9 °C 1.9 °C 1002.3 hPa North 3.2 km/h 17.7 km/h 14% 0 mm 988.0 W/m2
14:40 33.1 °C 2 °C 1002.3 hPa Calm   6.4 km/h 14% 0 mm 1062.0 W/m2
14:45 33.1 °C 2 °C 1001.9 hPa WNW 14.3 km/h 22.5 km/h 14% 0 mm 1044.0 W/m2
14:50 33.1 °C 2 °C 1001.9 hPa West 3.2 km/h 12.9 km/h 14% 0 mm 981.0 W/m2
14:56 33.1 °C 2 °C 1001.9 hPa NNW 11.1 km/h 11.3 km/h 14% 0 mm 1014.0 W/m2
15:01 32.9 °C 1.9 °C 1001.9 hPa WSW 11.1 km/h 14.5 km/h 14% 0 mm 1013.0 W/m2
15:06 32.8 °C 2.8 °C 1001.9 hPa West 1.4 km/h 14.5 km/h 15% 0 mm 984.0 W/m2
15:11 32.9 °C 1.9 °C 1001.9 hPa WNW 3.2 km/h 4.8 km/h 14% 0 mm 930.0 W/m2
15:16 32.9 °C 2.8 °C 1001.6 hPa NW 3.2 km/h 14.5 km/h 15% 0 mm 896.0 W/m2
15:21 32.4 °C 2.4 °C 1001.9 hPa WSW 11.1 km/h 17.7 km/h 15% 0 mm 884.0 W/m2
15:26 32.1 °C 2.2 °C 1001.6 hPa WNW 7.9 km/h 11.3 km/h 15% 0 mm 895.0 W/m2
15:31 31.9 °C 3 °C 1001.6 hPa WSW 6.4 km/h 14.5 km/h 16% 0 mm 875.0 W/m2
15:36 31.8 °C 2.9 °C 1001.6 hPa SW 6.4 km/h 16.1 km/h 16% 0 mm 861.0 W/m2
15:42 31.8 °C 2.9 °C 1001.2 hPa West 3.2 km/h 4.8 km/h 16% 0 mm 847.0 W/m2
15:47 32.3 °C 3.3 °C 1001.2 hPa North 4.7 km/h 6.4 km/h 16% 0 mm 817.0 W/m2
15:52 32.6 °C 2.6 °C 1001.2 hPa West 4.7 km/h 12.9 km/h 15% 0 mm 810.0 W/m2
15:57 32.7 °C 3.6 °C 1001.2 hPa NNW 4.7 km/h 12.9 km/h 16% 0 mm 796.0 W/m2
16:02 32.8 °C 2.8 °C 1001.2 hPa WSW 14.3 km/h 19.3 km/h 15% 0 mm 773.0 W/m2
16:12 32.9 °C 3.8 °C 1001.2 hPa NW 3.2 km/h 14.5 km/h 16% 0 mm 773.0 W/m2
16:17 32.8 °C 3.7 °C 1001.2 hPa WSW 3.2 km/h 8 km/h 16% 0 mm 248.0 W/m2
16:22 32.1 °C 4 °C 1001.2 hPa WNW 16.3 km/h 24.1 km/h 17% 0 mm 763.0 W/m2
16:28 31.7 °C 3.7 °C 1001.2 hPa SSW 7.9 km/h 14.5 km/h 17% 0 mm 786.0 W/m2
16:34 31.7 °C 3.7 °C 1001.2 hPa South 3.2 km/h 12.9 km/h 17% 0 mm 446.0 W/m2
16:39 31.9 °C 3.8 °C 1001.2 hPa West 14.3 km/h 16.1 km/h 17% 0 mm 650.0 W/m2
16:50 31.8 °C 3.7 °C 1001.2 hPa WSW 7.9 km/h 16.1 km/h 17% 0 mm 624.0 W/m2
16:55 31.7 °C 3.7 °C 1001.2 hPa NNW 1.4 km/h 22.5 km/h 17% 0 mm 589.0 W/m2
17:00 31.8 °C 3.7 °C 1001.2 hPa West 9.7 km/h 20.9 km/h 17% 0 mm 580.0 W/m2
17:06 31.5 °C 3.5 °C 1001.2 hPa WSW 6.4 km/h 14.5 km/h 17% 0 mm 573.0 W/m2
17:11 31.4 °C 3.4 °C 1001.2 hPa NNW 3.2 km/h 12.9 km/h 17% 0 mm 554.0 W/m2
17:22 32.1 °C 3.1 °C 1001.2 hPa WNW 1.4 km/h 11.3 km/h 16% 0 mm 492.0 W/m2
17:27 32.2 °C 3.2 °C 1001.2 hPa SW 4.7 km/h 12.9 km/h 16% 0 mm 480.0 W/m2
17:32 32.2 °C 3.2 °C 1001.2 hPa WSW 7.9 km/h 9.7 km/h 16% 0 mm 459.0 W/m2
17:38 32.1 °C 4 °C 1001.2 hPa NNW 3.2 km/h 12.9 km/h 17% 0 mm 436.0 W/m2
17:48 32.3 °C 3.3 °C 1001.2 hPa WSW 3.2 km/h 6.4 km/h 16% 0 mm 378.0 W/m2
17:54 32.1 °C 4 °C 1001.2 hPa WNW 17.7 km/h 20.9 km/h 17% 0 mm 378.0 W/m2
17:59 31.5 °C 3.5 °C 1001.2 hPa WNW 4.7 km/h 9.7 km/h 17% 0 mm 151.0 W/m2
18:10 30.6 °C 3.6 °C 1001.2 hPa WSW 4.7 km/h 11.3 km/h 18% 0 mm 211.0 W/m2
18:26 30.2 °C 4 °C 1001.2 hPa WSW 6.4 km/h 17.7 km/h 19% 0 mm 244.0 W/m2
18:36 30.2 °C 2.4 °C 1001.6 hPa WSW 6.4 km/h 20.9 km/h 17% 0 mm 202.0 W/m2
18:42 30.3 °C 1.7 °C 1001.6 hPa West 9.7 km/h 12.9 km/h 16% 0 mm 176.0 W/m2
18:47 29.8 °C 0.4 °C 1001.6 hPa WSW 6.4 km/h 29 km/h 15% 0 mm 134.0 W/m2
18:52 29.2 °C -0.1 °C 1001.9 hPa WNW 7.9 km/h 12.9 km/h 15% 0 mm 113.0 W/m2
18:58 28.7 °C 0.4 °C 1001.6 hPa SSW 9.7 km/h 17.7 km/h 16% 0 mm 32.0 W/m2
19:03 28.4 °C 0.2 °C 1001.9 hPa NNW 3.2 km/h 14.5 km/h 16% 0 mm 26.0 W/m2
19:08 28.1 °C -0.1 °C 1001.9 hPa SW 4.7 km/h 16.1 km/h 16% 0 mm 23.0 W/m2
19:14 27.8 °C 0.5 °C 1001.9 hPa West 4.7 km/h 9.7 km/h 17% 0 mm 19.0 W/m2
19:19 27.6 °C 0.3 °C 1001.9 hPa WNW 7.9 km/h 14.5 km/h 17% 0 mm 16.0 W/m2
19:24 27.3 °C 0.1 °C 1002.3 hPa WSW 6.4 km/h 14.5 km/h 17% 0 mm 12.0 W/m2
19:30 27.1 °C 0.7 °C 1002.3 hPa WSW 14.3 km/h 14.5 km/h 18% 0 mm 9.0 W/m2
19:35 26.9 °C 0.6 °C 1002.3 hPa West 11.1 km/h 17.7 km/h 18% 0 mm 7.0 W/m2
19:40 26.7 °C 1.2 °C 1002.3 hPa SSW 3.2 km/h 16.1 km/h 19% 0 mm 0.0 W/m2
19:46 26.5 °C 1 °C 1002.6 hPa SW 7.9 km/h 16.1 km/h 19% 0 mm 0.0 W/m2
19:51 26.3 °C 1.5 °C 1002.6 hPa SW 3.2 km/h 8 km/h 20% 0 mm 0.0 W/m2
19:56 26.2 °C 1.5 °C 1002.6 hPa West 4.7 km/h 12.9 km/h 20% 0 mm 0.0 W/m2
20:02 26.1 °C 1.4 °C 1002.6 hPa WNW 7.9 km/h 14.5 km/h 20% 0 mm 0.0 W/m2
20:07 25.9 °C 1.9 °C 1002.6 hPa SW 1.4 km/h 14.5 km/h 21% 0 mm 0.0 W/m2
20:12 25.7 °C 1.7 °C 1002.9 hPa WSW 7.9 km/h 19.3 km/h 21% 0 mm 0.0 W/m2
20:18 25.6 °C 1.6 °C 1002.9 hPa WSW 4.7 km/h 11.3 km/h 21% 0 mm 0.0 W/m2
20:23 25.4 °C 1.5 °C 1002.9 hPa WSW 7.9 km/h 16.1 km/h 21% 0 mm 0.0 W/m2
20:28 25.3 °C 2.1 °C 1002.9 hPa WSW 4.7 km/h 8 km/h 22% 0 mm 0.0 W/m2
20:34 25.2 °C 2 °C 1003.3 hPa WSW 6.4 km/h 12.9 km/h 22% 0 mm 0.0 W/m2
20:39 25.1 °C 1.9 °C 1003.3 hPa SW 1.4 km/h 8 km/h 22% 0 mm 0.0 W/m2
21:00 24.6 °C 2.1 °C 1003.6 hPa West 11.1 km/h 19.3 km/h 23% 0 mm 0.0 W/m2
21:06 24.4 °C 1.9 °C 1003.6 hPa SW 13 km/h 13 km/h 23% 0 mm 0.0 W/m2
21:11 24.3 °C 1.8 °C 1003.6 hPa West 4.7 km/h 8 km/h 23% 0 mm 0.0 W/m2
21:16 24.2 °C 1.8 °C 1003.6 hPa West 1.4 km/h 12.9 km/h 23% 0 mm 0.0 W/m2
21:27 24.1 °C 1.7 °C 1003.9 hPa WSW 4.7 km/h 12.9 km/h 23% 0 mm 0.0 W/m2
21:32 24.1 °C 1.1 °C 1003.9 hPa WSW 1.4 km/h 8 km/h 22% 0 mm 0.0 W/m2
21:38 24 °C 1 °C 1003.9 hPa SW 3.2 km/h 11.3 km/h 22% 0 mm 0.0 W/m2
21:43 23.9 °C 0.9 °C 1003.9 hPa Calm   4.8 km/h 22% 0 mm 0.0 W/m2
21:48 23.9 °C 0.9 °C 1003.9 hPa SSW 1.4 km/h 4.8 km/h 22% 0 mm 0.0 W/m2
21:54 23.9 °C 0.2 °C 1003.9 hPa SSW 4.7 km/h 8 km/h 21% 0 mm 0.0 W/m2
21:59 23.9 °C 0.2 °C 1003.9 hPa Calm   11.3 km/h 21% 0 mm 0.0 W/m2
22:04 23.8 °C 0.2 °C 1003.9 hPa South 7.9 km/h 8 km/h 21% 0 mm 0.0 W/m2
22:10 23.7 °C 0.1 °C 1003.9 hPa SSE 3.2 km/h 11.3 km/h 21% 0 mm 0.0 W/m2
22:15 23.7 °C 0.1 °C 1003.9 hPa SW 4.7 km/h 6.4 km/h 21% 0 mm 0.0 W/m2
22:20 23.6 °C -0.7 °C 1004.3 hPa WSW 11.1 km/h 12.9 km/h 20% 0 mm 0.0 W/m2
22:26 23.4 °C -0.8 °C 1004.3 hPa West 7.9 km/h 8 km/h 20% 0 mm 0.0 W/m2
22:31 23.4 °C -0.2 °C 1004.3 hPa West 7.9 km/h 12.9 km/h 21% 0 mm 0.0 W/m2
22:36 23.3 °C -0.3 °C 1004.3 hPa Calm   4.8 km/h 21% 0 mm 0.0 W/m2
22:42 23.3 °C -0.3 °C 1004.3 hPa Calm   4.8 km/h 21% 0 mm 0.0 W/m2
22:47 23.2 °C 0.3 °C 1004.3 hPa Calm   1.6 km/h 22% 0 mm 0.0 W/m2
22:52 23.2 °C 0.3 °C 1004.3 hPa Calm   1.6 km/h 22% 0 mm 0.0 W/m2
22:58 23.1 °C 0.2 °C 1004.6 hPa SSW 3.2 km/h 9.7 km/h 22% 0 mm 0.0 W/m2
23:03 23 °C 0.1 °C 1004.6 hPa SE 3.2 km/h 4.8 km/h 22% 0 mm 0.0 W/m2
23:08 22.9 °C 0.1 °C 1004.6 hPa South 1.4 km/h 6.4 km/h 22% 0 mm 0.0 W/m2
23:13 22.9 °C -0.6 °C 1004.6 hPa Calm   1.6 km/h 21% 0 mm 0.0 W/m2
23:18 22.8 °C 0 °C 1004.6 hPa SE 3.2 km/h 4.8 km/h 22% 0 mm 0.0 W/m2
23:23 22.7 °C -0.1 °C 1004.6 hPa Calm   9.7 km/h 22% 0 mm 0.0 W/m2
23:28 22.7 °C -0.1 °C 1004.6 hPa WSW 3.2 km/h 4.8 km/h 22% 0 mm 0.0 W/m2
23:39 22.4 °C 0.2 °C 1004.6 hPa Calm   3.2 km/h 23% 0 mm 0.0 W/m2
23:44 22.4 °C 0.2 °C 1004.6 hPa SSW 3.2 km/h 8 km/h 23% 0 mm 0.0 W/m2
23:55 22.3 °C 0.2 °C 1004.6 hPa SW 3.2 km/h 6.4 km/h 23% 0 mm 0.0 W/m2
Olympia, Windhoek, Namibia
Compliments of Weather Underground - 3 mb